createdAt,value
2022-12-23T00:01:33.289Z,1.79
2022-12-23T00:06:35.885Z,1.63
2022-12-23T00:11:58.427Z,1.40
2022-12-23T00:17:01.047Z,1.59
2022-12-23T00:22:03.913Z,1.57
2022-12-23T00:27:06.576Z,1.34
2022-12-23T00:32:09.237Z,1.51
2022-12-23T00:37:11.866Z,1.72
2022-12-23T00:42:32.802Z,1.38
2022-12-23T00:47:53.990Z,1.38
2022-12-23T00:52:57.011Z,1.44
2022-12-23T00:57:59.609Z,1.36
2022-12-23T01:03:21.005Z,1.32
2022-12-23T01:08:23.595Z,1.40
2022-12-23T01:13:26.212Z,1.34
2022-12-23T01:18:28.788Z,1.46
2022-12-23T01:23:31.609Z,1.48
2022-12-23T01:28:35.356Z,1.26
2022-12-23T01:33:37.953Z,1.49
2022-12-23T01:38:40.681Z,1.51
2022-12-23T01:43:48.301Z,1.60
2022-12-23T01:48:52.558Z,1.64
2022-12-23T01:54:01.312Z,1.41
2022-12-23T01:59:32.543Z,1.48
2022-12-23T02:04:35.160Z,1.53
2022-12-23T02:09:40.111Z,1.57
2022-12-23T02:15:22.945Z,1.59
2022-12-23T02:20:31.207Z,1.42
2022-12-23T02:25:33.659Z,1.35
2022-12-23T02:31:01.294Z,1.42
2022-12-23T02:36:18.280Z,1.44
2022-12-23T02:41:32.378Z,1.18
2022-12-23T02:46:52.474Z,1.36
2022-12-23T02:51:59.048Z,1.32
2022-12-23T02:57:04.636Z,1.27
2022-12-23T03:02:07.978Z,1.38
2022-12-23T03:07:20.449Z,1.43
2022-12-23T03:12:49.770Z,1.55
2022-12-23T03:18:05.579Z,1.50
2022-12-23T03:23:29.292Z,1.59
2022-12-23T03:29:00.405Z,1.25
2022-12-23T03:34:10.982Z,1.34
2022-12-23T03:39:24.596Z,1.55
2022-12-23T03:44:33.723Z,1.60
2022-12-23T03:49:42.961Z,1.47
2022-12-23T03:54:54.680Z,1.41
2022-12-23T03:59:57.463Z,1.28
2022-12-23T04:05:24.067Z,1.65
2022-12-23T04:10:27.707Z,1.65
2022-12-23T04:15:30.803Z,1.71
2022-12-23T04:20:33.646Z,1.65
2022-12-23T04:25:36.236Z,1.45
2022-12-23T04:30:38.850Z,1.75
2022-12-23T04:35:41.426Z,1.78
2022-12-23T04:40:47.252Z,1.69
2022-12-23T04:45:52.749Z,1.65
2022-12-23T04:50:55.364Z,1.83
2022-12-23T04:55:57.906Z,1.95
2022-12-23T05:01:02.461Z,1.94
2022-12-23T05:06:05.773Z,1.86
2022-12-23T05:11:08.812Z,1.97
2022-12-23T05:16:11.794Z,2.05
2022-12-23T05:21:15.671Z,2.05
2022-12-23T05:26:18.508Z,1.93
2022-12-23T05:31:21.167Z,1.67
2022-12-23T05:36:23.736Z,1.57
2022-12-23T05:41:26.263Z,1.47
2022-12-23T05:46:28.986Z,1.64
2022-12-23T05:51:32.227Z,1.72
2022-12-23T05:56:34.749Z,1.74
2022-12-23T06:01:37.509Z,1.77
2022-12-23T06:06:40.134Z,1.79
2022-12-23T06:11:42.756Z,1.85
2022-12-23T06:16:45.412Z,1.77
2022-12-23T06:21:48.084Z,1.97
2022-12-23T06:26:56.539Z,1.85
2022-12-23T06:31:59.744Z,1.89
2022-12-23T06:37:02.504Z,2.04
2022-12-23T06:42:05.209Z,2.12
2022-12-23T06:47:07.837Z,1.98
2022-12-23T06:52:10.495Z,1.93
2022-12-23T06:57:13.094Z,1.90
2022-12-23T07:02:15.823Z,1.88
2022-12-23T07:07:18.794Z,1.84
2022-12-23T07:12:21.348Z,1.79
2022-12-23T07:17:24.101Z,1.90
2022-12-23T07:22:27.014Z,1.66
2022-12-23T07:27:29.618Z,1.88
2022-12-23T07:32:32.271Z,1.62
2022-12-23T07:37:34.903Z,1.75
2022-12-23T07:42:46.743Z,1.86
2022-12-23T07:47:57.939Z,1.62
2022-12-23T07:53:00.521Z,1.85
2022-12-23T07:58:03.419Z,1.79
2022-12-23T08:03:06.104Z,2.02
2022-12-23T08:08:08.709Z,2.08
2022-12-23T08:13:11.290Z,2.15
2022-12-23T08:18:14.092Z,2.15
2022-12-23T08:23:22.939Z,2.35
2022-12-23T08:28:28.062Z,2.31
2022-12-23T08:33:30.621Z,2.28
2022-12-23T08:38:33.928Z,2.25
2022-12-23T08:43:36.710Z,2.20
2022-12-23T08:48:43.695Z,2.21
2022-12-23T08:53:52.514Z,2.11
2022-12-23T08:58:59.821Z,2.03
2022-12-23T09:04:04.540Z,1.93
2022-12-23T09:09:08.967Z,2.08
2022-12-23T09:14:11.995Z,2.11
2022-12-23T09:19:14.651Z,2.24
2022-12-23T09:24:17.378Z,2.19
2022-12-23T09:29:19.944Z,2.02
2022-12-23T09:34:22.608Z,2.43
2022-12-23T09:39:25.763Z,2.39
2022-12-23T09:44:46.569Z,2.41
2022-12-23T09:49:52.841Z,2.33
2022-12-23T09:54:55.976Z,2.19
2022-12-23T10:00:14.819Z,2.30
2022-12-23T10:05:43.060Z,2.30
2022-12-23T10:10:50.959Z,2.19
2022-12-23T10:15:57.968Z,2.16
2022-12-23T10:21:06.145Z,2.11
2022-12-23T10:26:29.488Z,2.10
2022-12-23T10:32:00.158Z,2.37
2022-12-23T10:37:23.011Z,2.34
2022-12-23T10:42:33.859Z,2.39
2022-12-23T10:47:48.129Z,2.37
2022-12-23T10:52:52.829Z,2.44
2022-12-23T10:58:00.166Z,2.48
2022-12-23T11:03:15.463Z,2.26
2022-12-23T11:08:21.251Z,2.12
2022-12-23T11:13:32.491Z,2.07
2022-12-23T11:18:40.343Z,1.97
2022-12-23T11:23:44.768Z,2.31
2022-12-23T11:28:52.813Z,2.27
2022-12-23T11:34:01.515Z,1.99
2022-12-23T11:39:14.588Z,2.00
2022-12-23T11:44:19.950Z,2.10
2022-12-23T11:49:28.699Z,2.07
2022-12-23T11:54:32.596Z,2.06
2022-12-23T11:59:37.894Z,1.98
2022-12-23T12:04:41.864Z,1.86
2022-12-23T12:09:45.977Z,1.87
2022-12-23T12:14:52.881Z,1.83
2022-12-23T12:20:29.367Z,1.93
2022-12-23T12:25:53.304Z,1.79
2022-12-23T12:31:24.451Z,1.70
2022-12-23T12:37:08.906Z,1.69
2022-12-23T12:42:29.204Z,1.62
2022-12-23T13:08:19.769Z,1.67
2022-12-23T13:13:56.204Z,1.78
2022-12-23T13:26:34.440Z,1.80
2022-12-23T13:46:21.434Z,1.81
2022-12-23T13:51:33.583Z,1.75
2022-12-23T13:56:44.553Z,1.72
2022-12-23T14:01:49.816Z,1.74
2022-12-23T14:06:54.422Z,1.81
2022-12-23T14:12:02.616Z,1.92
2022-12-23T14:17:43.799Z,1.88
2022-12-23T14:23:12.391Z,1.43
2022-12-23T14:28:17.673Z,1.57
2022-12-23T14:33:33.175Z,1.38
2022-12-23T14:38:35.751Z,1.63
2022-12-23T14:43:44.531Z,1.71
2022-12-23T14:48:47.546Z,1.80
2022-12-23T14:53:54.250Z,1.72
2022-12-23T14:59:15.242Z,1.66
2022-12-23T15:04:26.538Z,1.58
2022-12-23T15:09:47.483Z,1.60
2022-12-23T15:14:57.774Z,1.60
2022-12-23T15:20:11.263Z,1.55
2022-12-23T15:25:23.409Z,1.58
2022-12-23T15:30:28.410Z,1.58
2022-12-23T15:35:33.685Z,1.60
2022-12-23T15:40:38.137Z,1.65
2022-12-23T15:45:41.824Z,1.69
2022-12-23T15:50:44.537Z,1.65
2022-12-23T15:55:49.096Z,1.71
2022-12-23T16:00:55.473Z,1.60
2022-12-23T16:06:07.628Z,1.63
2022-12-23T16:11:18.009Z,1.47
2022-12-23T16:16:33.499Z,1.66
2022-12-23T16:21:37.118Z,1.85
2022-12-23T16:26:43.216Z,1.87
2022-12-23T16:31:52.086Z,1.62
2022-12-23T16:36:58.513Z,1.79
2022-12-23T16:42:01.103Z,1.85
2022-12-23T16:47:08.140Z,1.75
2022-12-23T16:52:14.296Z,1.67
2022-12-23T16:57:16.869Z,1.60
2022-12-23T17:02:23.754Z,1.79
2022-12-23T17:07:27.274Z,1.44
2022-12-23T17:12:30.043Z,1.37
2022-12-23T17:17:32.949Z,1.44
2022-12-23T17:22:36.637Z,1.54
2022-12-23T17:27:40.326Z,1.68
2022-12-23T17:32:48.900Z,1.68
2022-12-23T17:37:52.574Z,1.55
2022-12-23T17:42:55.831Z,1.67
2022-12-23T17:47:58.437Z,1.62
2022-12-23T17:53:01.237Z,1.52
2022-12-23T17:58:03.892Z,1.45
2022-12-23T18:03:06.793Z,1.31
2022-12-23T18:08:09.361Z,1.38
2022-12-23T18:13:18.631Z,1.54
2022-12-23T18:18:31.315Z,1.63
2022-12-23T18:23:37.285Z,1.47
2022-12-23T18:28:40.228Z,1.52
2022-12-23T18:33:43.329Z,1.65
2022-12-23T18:38:45.907Z,1.65
2022-12-23T18:43:48.622Z,1.45
2022-12-23T18:48:51.798Z,1.57
2022-12-23T18:53:54.462Z,1.53
2022-12-23T18:58:57.261Z,1.50
2022-12-23T19:03:59.885Z,1.49
2022-12-23T19:09:02.567Z,1.57
2022-12-23T19:14:05.326Z,1.39
2022-12-23T19:19:08.481Z,1.44
2022-12-23T19:24:11.148Z,1.71
2022-12-23T19:29:13.732Z,1.70
2022-12-23T19:34:16.288Z,1.69
2022-12-23T19:39:22.004Z,1.64
2022-12-23T19:44:24.646Z,1.77
2022-12-23T19:49:27.384Z,1.67
2022-12-23T19:54:30.012Z,1.80
2022-12-23T19:59:32.592Z,1.52
2022-12-23T20:04:35.159Z,1.67
2022-12-23T20:09:38.329Z,1.81
2022-12-23T20:33:36.536Z,1.96
2022-12-23T20:38:41.182Z,1.98
2022-12-23T20:43:46.070Z,1.73
2022-12-23T20:48:55.087Z,1.75
2022-12-23T20:54:01.099Z,2.00
2022-12-23T20:59:04.126Z,2.04
2022-12-23T21:04:10.127Z,2.10
2022-12-23T21:09:15.477Z,1.95
2022-12-23T21:14:18.204Z,1.56
2022-12-23T21:19:24.045Z,1.77
2022-12-23T21:24:27.118Z,1.70
2022-12-23T21:29:29.713Z,1.75
2022-12-23T21:34:32.679Z,1.68
2022-12-23T21:39:35.499Z,1.74
2022-12-23T21:44:38.053Z,1.62
2022-12-23T21:49:42.361Z,1.60
2022-12-23T21:54:44.930Z,1.60
2022-12-23T21:59:47.457Z,1.74
2022-12-23T22:04:49.968Z,1.73
2022-12-23T22:09:52.506Z,1.81
2022-12-23T22:14:55.043Z,1.83
2022-12-23T22:19:57.589Z,1.50
2022-12-23T22:25:00.123Z,1.59
2022-12-23T22:30:02.740Z,1.59
2022-12-23T22:35:06.210Z,1.57
2022-12-23T22:40:09.519Z,1.46
2022-12-23T22:45:13.503Z,1.58
2022-12-23T22:50:16.190Z,1.77
2022-12-23T22:55:18.825Z,1.84
2022-12-23T23:00:21.389Z,1.91
2022-12-23T23:05:24.182Z,1.88
2022-12-23T23:10:26.794Z,1.70
2022-12-23T23:15:29.405Z,1.79
2022-12-23T23:20:32.002Z,1.92
2022-12-23T23:25:34.874Z,1.72
2022-12-23T23:30:38.892Z,1.60
2022-12-23T23:35:41.671Z,1.63
2022-12-23T23:40:47.785Z,1.56
2022-12-23T23:45:51.221Z,1.50
2022-12-23T23:51:01.977Z,1.73
2022-12-23T23:56:06.664Z,1.78
